Time;durP1;ratioP1;P1;durP2;ratioP2;P2;SDS_P1;SDS_P2;PMS_P1;PMS_P2;Temp;Humidity;BMP_temperature;BMP_pressure;BME280_temperature;BME280_humidity;BME280_pressure;Samples;Min_cycle;Max_cycle;Signal;HPM_P1;HPM_P2
2021/12/28 00:01:08;;;;;;;1.80;0.87;;;4.60;99.90;;;;;;5032958;28;20185;-73
2021/12/28 00:03:34;;;;;;;0.50;0.50;;;4.60;99.90;;;;;;5033049;28;20220;-73
2021/12/28 00:06:00;;;;;;;1.50;1.00;;;4.70;99.90;;;;;;5032552;28;20309;-73
2021/12/28 00:08:27;;;;;;;0.87;0.87;;;4.80;99.90;;;;;;5014988;28;20210;-73
2021/12/28 00:10:53;;;;;;;1.13;0.83;;;4.90;99.90;;;;;;5032891;28;20620;-74
2021/12/28 00:13:18;;;;;;;0.90;0.90;;;5.00;99.90;;;;;;5014612;28;20224;-73
2021/12/28 00:18:13;;;;;;;0.67;0.67;;;5.00;99.90;;;;;;5029112;28;20206;-73
2021/12/28 00:20:41;;;;;;;1.37;1.37;;;5.10;99.90;;;;;;5023202;28;20677;-73
2021/12/28 00:23:17;;;;;;;1.50;1.40;;;5.10;99.90;;;;;;5032628;28;20232;-73
2021/12/28 00:25:43;;;;;;;1.10;0.97;;;5.10;99.90;;;;;;5032451;28;20284;-73
2021/12/28 00:28:09;;;;;;;1.80;1.53;;;5.10;99.90;;;;;;5032158;28;20702;-73
2021/12/28 00:30:36;;;;;;;1.17;1.13;;;5.10;99.90;;;;;;5032460;28;20256;-73
2021/12/28 00:33:02;;;;;;;0.10;0.10;;;5.10;99.90;;;;;;5032339;28;20177;-73
2021/12/28 00:35:34;;;;;;;1.33;1.33;;;5.10;99.90;;;;;;5032408;28;20170;-74
2021/12/28 00:38:02;;;;;;;2.73;1.80;;;5.30;99.90;;;;;;5031908;28;20173;-74
2021/12/28 00:40:29;;;;;;;1.50;1.50;;;5.30;99.90;;;;;;5032387;28;20178;-73
2021/12/28 00:42:55;;;;;;;1.27;1.27;;;5.40;99.90;;;;;;5032087;28;20181;-73
2021/12/28 00:45:21;;;;;;;0.80;0.80;;;5.40;99.90;;;;;;5032198;28;20170;-73
2021/12/28 00:47:47;;;;;;;1.70;1.33;;;5.50;99.90;;;;;;5042138;28;20200;-73
2021/12/28 00:50:15;;;;;;;2.07;1.87;;;5.40;99.90;;;;;;5052018;28;20184;-73
2021/12/28 00:52:41;;;;;;;1.13;0.57;;;5.30;99.90;;;;;;5022962;28;20181;-73
2021/12/28 00:55:08;;;;;;;1.93;1.83;;;5.30;99.90;;;;;;5031452;28;20170;-73
2021/12/28 00:57:34;;;;;;;2.57;2.47;;;5.30;99.90;;;;;;5031587;28;20603;-73
2021/12/28 01:00:00;;;;;;;0.53;0.53;;;5.50;99.90;;;;;;5031761;28;20180;-73
2021/12/28 01:02:25;;;;;;;3.53;3.17;;;5.40;99.90;;;;;;5031977;28;20181;-73
2021/12/28 01:04:51;;;;;;;0.23;0.23;;;5.40;99.90;;;;;;5031746;28;20247;-73
2021/12/28 01:07:17;;;;;;;0.53;0.53;;;5.50;99.90;;;;;;5031420;28;20244;-73
2021/12/28 01:09:44;;;;;;;2.20;2.10;;;5.40;99.90;;;;;;5031621;28;20751;-73
2021/12/28 01:12:10;;;;;;;0.30;0.30;;;5.50;99.90;;;;;;5031997;28;20225;-73
2021/12/28 01:14:37;;;;;;;2.43;1.40;;;5.50;99.90;;;;;;5031819;28;20502;-73
2021/12/28 01:17:03;;;;;;;1.03;1.03;;;5.60;99.90;;;;;;5031361;28;20205;-73
2021/12/28 01:19:29;;;;;;;0.40;0.40;;;5.60;99.90;;;;;;5031576;28;20195;-73
2021/12/28 01:21:55;;;;;;;2.57;1.90;;;5.60;99.90;;;;;;5031589;28;20653;-73
2021/12/28 01:24:21;;;;;;;1.43;1.43;;;5.50;99.90;;;;;;5030578;28;20583;-73
2021/12/28 01:26:46;;;;;;;1.90;1.80;;;5.60;99.90;;;;;;5013414;28;20199;-73
2021/12/28 01:29:12;;;;;;;1.93;1.83;;;5.60;99.90;;;;;;5013745;28;20184;-73
2021/12/28 01:31:37;;;;;;;1.20;1.20;;;5.60;99.90;;;;;;5031636;28;20537;-73
2021/12/28 01:34:04;;;;;;;0.60;0.60;;;5.60;99.90;;;;;;5013788;28;20178;-73
2021/12/28 01:36:30;;;;;;;1.23;1.13;;;5.60;99.90;;;;;;5031088;28;20205;-72
2021/12/28 01:38:56;;;;;;;0.20;0.20;;;5.70;99.90;;;;;;5031170;28;20178;-73
2021/12/28 01:41:21;;;;;;;2.40;2.17;;;5.80;99.90;;;;;;5031412;28;20192;-73
2021/12/28 01:43:53;;;;;;;0.53;0.53;;;5.80;99.90;;;;;;5031643;28;20664;-74
2021/12/28 01:46:19;;;;;;;1.33;1.23;;;5.70;99.90;;;;;;5028855;28;20200;-73
2021/12/28 01:48:44;;;;;;;2.00;1.80;;;5.70;99.90;;;;;;5005197;28;20556;-74
2021/12/28 01:51:12;;;;;;;7.83;2.53;;;5.70;99.90;;;;;;5027268;28;20248;-73
2021/12/28 01:53:39;;;;;;;0.00;0.00;;;5.70;99.90;;;;;;5013306;28;20269;-72
2021/12/28 01:56:11;;;;;;;0.67;0.63;;;5.70;99.90;;;;;;5031019;28;20196;-73
2021/12/28 01:58:38;;;;;;;1.30;1.30;;;5.80;99.90;;;;;;5036570;28;20536;-73
2021/12/28 02:01:06;;;;;;;0.00;0.00;;;5.90;99.90;;;;;;5031735;28;20256;-72
2021/12/28 02:03:34;;;;;;;4.90;2.00;;;6.10;99.90;;;;;;5013187;28;20269;-73
2021/12/28 02:05:59;;;;;;;0.10;0.10;;;6.10;99.90;;;;;;5025390;28;20669;-73
2021/12/28 02:08:25;;;;;;;1.50;0.77;;;6.10;99.90;;;;;;5042936;28;20222;-73
2021/12/28 02:10:52;;;;;;;5.60;0.97;;;6.00;99.90;;;;;;5036533;28;20170;-72
2021/12/28 02:13:19;;;;;;;0.10;0.10;;;5.90;99.90;;;;;;5014044;28;20185;-73
2021/12/28 02:15:45;;;;;;;2.37;1.73;;;5.90;99.90;;;;;;5029836;28;20201;-72
2021/12/28 02:18:13;;;;;;;0.33;0.33;;;5.90;99.90;;;;;;5033234;28;20501;-73
2021/12/28 02:20:39;;;;;;;0.17;0.17;;;6.20;99.90;;;;;;5035487;28;20177;-73
2021/12/28 02:23:05;;;;;;;0.40;0.40;;;6.40;99.90;;;;;;5024931;28;20185;-73
2021/12/28 02:25:31;;;;;;;5.83;2.73;;;6.50;99.90;;;;;;5025946;28;20166;-73
2021/12/28 02:27:58;;;;;;;2.57;1.87;;;6.50;99.90;;;;;;5041158;28;20196;-73
2021/12/28 02:30:23;;;;;;;0.40;0.40;;;6.40;99.90;;;;;;5019355;28;20206;-73
2021/12/28 02:32:50;;;;;;;1.87;1.80;;;6.40;99.90;;;;;;5016487;28;20532;-73
2021/12/28 02:35:25;;;;;;;0.17;0.17;;;6.30;99.90;;;;;;5036175;28;20166;-72
2021/12/28 02:37:52;;;;;;;0.57;0.57;;;6.30;99.90;;;;;;5025578;28;20171;-73
2021/12/28 02:40:21;;;;;;;0.70;0.70;;;6.40;99.90;;;;;;5033399;28;20576;-73
2021/12/28 02:42:47;;;;;;;2.63;0.70;;;6.40;99.90;;;;;;5036290;28;20204;-73
2021/12/28 02:45:18;;;;;;;1.03;1.03;;;6.50;99.90;;;;;;5034530;28;20217;-73
2021/12/28 02:47:44;;;;;;;1.20;1.20;;;6.60;99.90;;;;;;5008773;28;20202;-72
2021/12/28 02:50:23;;;;;;;1.20;1.10;;;6.60;99.90;;;;;;5036434;28;20178;-74
2021/12/28 02:52:49;;;;;;;2.70;2.27;;;6.70;99.90;;;;;;5047499;28;20172;-74
2021/12/28 02:55:17;;;;;;;0.63;0.63;;;6.80;99.90;;;;;;5030869;28;20167;-73
2021/12/28 02:58:04;;;;;;;1.70;1.60;;;6.70;99.90;;;;;;5018820;28;20190;-73
2021/12/28 03:00:43;;;;;;;0.67;0.53;;;6.70;99.90;;;;;;5035876;28;20279;-73
2021/12/28 03:03:18;;;;;;;0.17;0.17;;;6.80;99.90;;;;;;5032187;28;20649;-73
2021/12/28 03:05:55;;;;;;;2.53;1.07;;;6.80;99.90;;;;;;5012053;28;20189;-73
2021/12/28 03:08:23;;;;;;;11.03;2.00;;;6.80;99.90;;;;;;5034693;28;20199;-73
2021/12/28 03:10:49;;;;;;;0.40;0.40;;;6.70;99.90;;;;;;5038481;28;20170;-73
2021/12/28 03:13:21;;;;;;;1.53;1.43;;;6.70;99.90;;;;;;5007874;28;20596;-73
2021/12/28 03:15:47;;;;;;;2.10;2.00;;;6.70;99.90;;;;;;5028104;28;20677;-72
2021/12/28 03:18:12;;;;;;;1.37;1.27;;;6.70;99.90;;;;;;5042939;28;20185;-73
2021/12/28 03:20:38;;;;;;;7.83;1.43;;;6.70;99.90;;;;;;5047649;28;20177;-73
2021/12/28 03:23:04;;;;;;;1.60;1.20;;;6.70;99.90;;;;;;5034090;28;20181;-73
2021/12/28 03:25:31;;;;;;;0.43;0.43;;;6.70;99.90;;;;;;5023679;28;20561;-73
2021/12/28 03:27:57;;;;;;;8.63;3.10;;;6.80;99.90;;;;;;5043797;28;20549;-73
2021/12/28 03:30:23;;;;;;;1.73;1.43;;;6.80;99.90;;;;;;5022320;28;20208;-73
2021/12/28 03:32:48;;;;;;;0.50;0.50;;;6.80;99.90;;;;;;5019488;28;20645;-73
2021/12/28 03:35:15;;;;;;;5.20;3.87;;;6.80;99.90;;;;;;5038055;28;20166;-73
2021/12/28 03:37:41;;;;;;;3.40;3.20;;;6.90;99.90;;;;;;5026121;28;20190;-72
2021/12/28 03:40:10;;;;;;;3.40;3.00;;;6.90;99.90;;;;;;5012357;28;20170;-73
2021/12/28 03:42:36;;;;;;;1.10;1.00;;;6.90;99.90;;;;;;5015925;28;20184;-73
2021/12/28 03:45:03;;;;;;;0.10;0.10;;;6.90;99.90;;;;;;5034473;28;20178;-73
2021/12/28 03:47:29;;;;;;;5.00;4.23;;;7.00;99.90;;;;;;5026408;28;20190;-73
2021/12/28 03:49:54;;;;;;;5.60;3.00;;;7.10;99.90;;;;;;5032557;28;20170;-72
2021/12/28 03:52:20;;;;;;;0.73;0.73;;;7.10;99.90;;;;;;5038722;28;20178;-73
2021/12/28 03:54:46;;;;;;;0.50;0.50;;;7.10;99.90;;;;;;5032754;28;20636;-73
2021/12/28 03:57:11;;;;;;;1.23;0.77;;;7.20;99.90;;;;;;5032486;28;20197;-73
2021/12/28 03:59:38;;;;;;;0.30;0.30;;;7.20;99.90;;;;;;5032566;28;20215;-73
2021/12/28 04:02:04;;;;;;;2.27;2.10;;;7.20;99.90;;;;;;5032997;28;20649;-73
2021/12/28 04:04:30;;;;;;;0.70;0.70;;;7.30;99.90;;;;;;5032977;28;20188;-73
2021/12/28 04:06:55;;;;;;;0.27;0.27;;;7.30;99.90;;;;;;5032371;28;20205;-73
2021/12/28 04:09:45;;;;;;;0.53;0.53;;;7.40;99.90;;;;;;5032873;28;20205;-73
2021/12/28 04:12:07;;;;;;;1.93;1.77;;;7.50;99.90;;;;;;5032718;28;20181;-73
2021/12/28 04:14:32;;;;;;;0.13;0.13;;;7.50;99.90;;;;;;5032865;28;20178;-73
2021/12/28 04:16:58;;;;;;;29.97;4.47;;;7.50;99.90;;;;;;5033281;28;20229;-73
2021/12/28 04:19:23;;;;;;;0.20;0.20;;;7.60;99.90;;;;;;5032609;28;20220;-73
2021/12/28 04:21:49;;;;;;;12.43;1.23;;;7.50;99.90;;;;;;5032442;28;20280;-73
2021/12/28 04:24:14;;;;;;;0.63;0.63;;;7.60;99.90;;;;;;5032292;28;20188;-73
2021/12/28 04:26:40;;;;;;;0.00;0.00;;;7.60;99.90;;;;;;5014513;28;20221;-73
2021/12/28 04:29:05;;;;;;;8.10;1.27;;;7.70;99.90;;;;;;5032105;28;20689;-73
2021/12/28 04:31:31;;;;;;;10.03;3.33;;;7.60;99.90;;;;;;5014733;28;20269;-73
2021/12/28 04:33:57;;;;;;;2.77;2.10;;;7.60;99.90;;;;;;5032518;28;20182;-73
2021/12/28 04:36:22;;;;;;;1.97;1.60;;;7.70;99.90;;;;;;5032151;28;20193;-73
2021/12/28 04:38:48;;;;;;;1.03;1.00;;;7.70;99.90;;;;;;5032224;28;20181;-73
2021/12/28 04:41:14;;;;;;;0.37;0.37;;;7.70;99.90;;;;;;5014580;28;20184;-73
2021/12/28 04:43:40;;;;;;;0.67;0.63;;;7.80;99.90;;;;;;5032227;28;20188;-73
2021/12/28 04:46:06;;;;;;;5.00;1.50;;;7.70;99.90;;;;;;5031750;28;20197;-73
2021/12/28 04:48:32;;;;;;;0.70;0.70;;;7.70;99.90;;;;;;5032300;28;20201;-73
2021/12/28 04:50:59;;;;;;;0.47;0.47;;;7.70;99.90;;;;;;5034910;28;20178;-73
2021/12/28 04:53:26;;;;;;;1.17;1.13;;;7.80;99.90;;;;;;5035326;28;20169;-73
2021/12/28 04:55:52;;;;;;;1.50;0.93;;;7.70;99.90;;;;;;5031811;28;20196;-73
2021/12/28 04:58:18;;;;;;;1.20;1.20;;;7.70;99.90;;;;;;5032193;28;20253;-72
2021/12/28 05:00:45;;;;;;;1.77;1.17;;;7.80;99.90;;;;;;5031943;28;20190;-73
2021/12/28 05:03:13;;;;;;;0.93;0.40;;;7.90;99.90;;;;;;5031943;28;20188;-73
2021/12/28 05:05:45;;;;;;;0.07;0.07;;;7.80;99.90;;;;;;5031454;28;20184;-73
2021/12/28 05:08:12;;;;;;;1.60;1.07;;;7.80;99.90;;;;;;5014015;28;20292;-73
2021/12/28 05:10:38;;;;;;;2.73;0.97;;;7.80;99.90;;;;;;5031895;28;20581;-73
2021/12/28 05:13:04;;;;;;;7.33;2.53;;;7.80;99.90;;;;;;5031878;28;20272;-73
2021/12/28 05:15:30;;;;;;;0.30;0.30;;;7.80;99.90;;;;;;5031690;28;20260;-73
2021/12/28 05:17:55;;;;;;;0.93;0.93;;;7.80;99.90;;;;;;5031383;28;20194;-73
2021/12/28 05:20:21;;;;;;;0.63;0.63;;;7.90;99.90;;;;;;5031642;28;20213;-73
2021/12/28 05:22:47;;;;;;;5.53;1.70;;;7.90;99.90;;;;;;5031385;28;20189;-73
2021/12/28 05:25:12;;;;;;;0.00;0.00;;;8.00;99.90;;;;;;5031677;28;20242;-73
2021/12/28 05:27:38;;;;;;;29.53;2.00;;;8.00;99.90;;;;;;5030945;28;20212;-73
2021/12/28 05:30:07;;;;;;;0.00;0.00;;;8.00;99.90;;;;;;5014102;28;20186;-73
2021/12/28 05:32:32;;;;;;;12.07;1.43;;;8.00;99.90;;;;;;5031483;28;20253;-73
2021/12/28 05:34:58;;;;;;;0.23;0.23;;;7.90;99.90;;;;;;5031373;28;20693;-73
2021/12/28 05:37:24;;;;;;;1.57;1.47;;;8.00;99.90;;;;;;5013341;28;20212;-73
2021/12/28 05:39:49;;;;;;;0.77;0.60;;;8.00;99.90;;;;;;5031326;28;20541;-73
2021/12/28 05:42:15;;;;;;;2.73;2.53;;;8.00;99.90;;;;;;5031395;28;20188;-73
2021/12/28 05:44:41;;;;;;;4.90;2.80;;;8.00;99.90;;;;;;5031048;28;20189;-73
2021/12/28 05:47:06;;;;;;;3.47;2.30;;;8.00;99.90;;;;;;5030667;28;20216;-73
2021/12/28 05:49:32;;;;;;;0.10;0.10;;;8.00;99.90;;;;;;5013355;28;20212;-73
2021/12/28 05:51:58;;;;;;;2.10;0.50;;;8.00;99.90;;;;;;5037369;28;20201;-73
2021/12/28 05:54:23;;;;;;;1.17;0.60;;;8.00;99.90;;;;;;5031401;28;20177;-73
2021/12/28 05:56:49;;;;;;;3.30;2.47;;;8.00;99.90;;;;;;5030996;28;20213;-73
2021/12/28 05:59:14;;;;;;;1.33;1.23;;;8.10;99.90;;;;;;5031240;28;20264;-73
2021/12/28 06:01:40;;;;;;;2.23;2.13;;;8.10;99.90;;;;;;5031310;28;20193;-72
2021/12/28 06:04:07;;;;;;;6.63;2.43;;;8.10;99.90;;;;;;5031444;28;20173;-73
2021/12/28 06:06:33;;;;;;;1.00;0.90;;;8.10;99.90;;;;;;5030770;28;20702;-73
2021/12/28 06:08:58;;;;;;;3.73;1.50;;;8.10;99.90;;;;;;5031264;28;20252;-73
2021/12/28 06:11:24;;;;;;;1.43;1.43;;;8.10;99.90;;;;;;5033906;28;20181;-73
2021/12/28 06:13:50;;;;;;;2.00;1.90;;;8.10;99.90;;;;;;5034831;28;20823;-73
2021/12/28 06:16:15;;;;;;;4.90;2.93;;;8.10;99.90;;;;;;5017123;28;20214;-73
2021/12/28 06:18:41;;;;;;;3.27;2.23;;;8.10;99.90;;;;;;5034921;28;20181;-73
2021/12/28 06:21:07;;;;;;;6.13;2.23;;;8.10;99.90;;;;;;5036030;28;20184;-73
2021/12/28 06:23:33;;;;;;;1.80;1.07;;;8.10;99.90;;;;;;5035577;28;20185;-73
2021/12/28 06:25:58;;;;;;;0.67;0.67;;;8.10;99.90;;;;;;5034796;28;20201;-73
2021/12/28 06:28:24;;;;;;;0.30;0.30;;;8.10;99.90;;;;;;5034610;28;20201;-72
2021/12/28 06:30:50;;;;;;;0.73;0.73;;;8.10;99.90;;;;;;5034601;28;20664;-73
2021/12/28 06:33:15;;;;;;;2.33;2.23;;;8.10;99.90;;;;;;5035047;28;20308;-73
2021/12/28 06:35:42;;;;;;;1.30;1.03;;;8.10;99.90;;;;;;5034642;28;20206;-72
2021/12/28 06:38:07;;;;;;;3.97;1.90;;;8.10;99.90;;;;;;5034576;28;20182;-73
2021/12/28 06:40:33;;;;;;;10.60;2.83;;;8.10;99.90;;;;;;5016269;28;20791;-73
2021/12/28 06:42:59;;;;;;;3.23;2.93;;;8.10;99.90;;;;;;5034476;28;20664;-73
2021/12/28 06:45:25;;;;;;;1.90;1.80;;;8.10;99.90;;;;;;5034132;28;20181;-73
2021/12/28 06:47:51;;;;;;;4.37;1.90;;;8.10;99.90;;;;;;5034017;28;20666;-72
2021/12/28 06:50:17;;;;;;;0.57;0.57;;;8.10;99.90;;;;;;5018969;28;20296;-73
2021/12/28 06:52:43;;;;;;;0.87;0.80;;;8.10;99.90;;;;;;5036195;28;20166;-73
2021/12/28 06:55:10;;;;;;;13.30;2.50;;;8.10;99.90;;;;;;5031330;28;20173;-73
2021/12/28 06:57:36;;;;;;;0.43;0.43;;;8.10;99.90;;;;;;5034348;28;20185;-74
2021/12/28 07:00:05;;;;;;;0.33;0.33;;;8.10;99.90;;;;;;5032908;28;20200;-73
2021/12/28 07:02:31;;;;;;;0.23;0.23;;;8.10;99.90;;;;;;5031268;28;20178;-74
2021/12/28 07:04:56;;;;;;;0.60;0.60;;;8.10;99.90;;;;;;5036165;28;20284;-73
2021/12/28 07:07:22;;;;;;;0.77;0.77;;;8.10;99.90;;;;;;5029321;28;20198;-74
2021/12/28 07:09:47;;;;;;;9.03;3.63;;;8.10;99.90;;;;;;5029746;28;20741;-74
2021/12/28 07:12:13;;;;;;;4.30;1.27;;;8.10;99.90;;;;;;5026163;28;20377;-73
2021/12/28 07:14:38;;;;;;;0.30;0.30;;;8.10;99.90;;;;;;5033993;28;20197;-73
2021/12/28 07:17:04;;;;;;;0.60;0.60;;;8.10;99.90;;;;;;5033636;28;20221;-74
2021/12/28 07:19:30;;;;;;;19.63;2.57;;;8.10;99.90;;;;;;5033907;28;20185;-75
2021/12/28 07:21:56;;;;;;;3.47;1.50;;;8.00;99.90;;;;;;5032719;28;20260;-75
2021/12/28 07:24:21;;;;;;;17.27;1.77;;;8.00;99.90;;;;;;5038866;28;20185;-75
2021/12/28 07:26:47;;;;;;;17.40;3.03;;;7.90;99.90;;;;;;5035130;28;20209;-75
2021/12/28 07:29:13;;;;;;;1.30;0.73;;;7.90;99.90;;;;;;5035558;28;20188;-75
2021/12/28 07:31:39;;;;;;;0.53;0.53;;;7.80;99.90;;;;;;5035688;28;20185;-73
2021/12/28 07:34:05;;;;;;;0.03;0.03;;;7.70;99.90;;;;;;5035452;28;20560;-73
2021/12/28 07:36:30;;;;;;;1.10;1.10;;;7.70;99.90;;;;;;5035148;28;20200;-73
2021/12/28 07:38:56;;;;;;;0.10;0.10;;;7.60;99.90;;;;;;5053447;28;20207;-73
2021/12/28 07:41:22;;;;;;;2.20;0.50;;;7.60;99.90;;;;;;5035431;28;20184;-73
2021/12/28 07:43:48;;;;;;;0.77;0.63;;;7.60;99.90;;;;;;5053344;28;20177;-73
2021/12/28 07:46:14;;;;;;;2.57;1.50;;;7.50;99.90;;;;;;5038940;28;20709;-73
2021/12/28 07:48:41;;;;;;;1.23;0.87;;;7.50;99.90;;;;;;5032818;28;20194;-73
2021/12/28 07:51:07;;;;;;;0.30;0.30;;;7.50;99.90;;;;;;5036938;28;20180;-73
2021/12/28 07:53:36;;;;;;;7.10;3.53;;;7.50;99.90;;;;;;5035129;28;20178;-74
2021/12/28 07:56:03;;;;;;;1.37;1.37;;;7.50;99.90;;;;;;5015075;28;20283;-73
2021/12/28 07:58:29;;;;;;;0.40;0.40;;;7.60;99.90;;;;;;5015086;28;20190;-74
2021/12/28 08:00:55;;;;;;;3.03;1.27;;;7.70;99.90;;;;;;5033159;28;20182;-73
2021/12/28 08:03:23;;;;;;;1.03;0.33;;;7.80;99.90;;;;;;5032938;28;20240;-74
2021/12/28 08:05:49;;;;;;;4.43;2.53;;;7.80;99.90;;;;;;5032665;28;20232;-72
2021/12/28 08:08:16;;;;;;;0.53;0.53;;;7.90;99.90;;;;;;5014884;28;20217;-73
2021/12/28 08:10:41;;;;;;;0.83;0.83;;;7.90;99.90;;;;;;5032795;28;20189;-73
2021/12/28 08:13:08;;;;;;;0.73;0.73;;;8.00;99.90;;;;;;5014713;28;20171;-73
2021/12/28 08:15:33;;;;;;;9.23;3.40;;;8.00;99.90;;;;;;5031429;28;20196;-73
2021/12/28 08:17:59;;;;;;;2.20;2.00;;;8.10;99.90;;;;;;5037412;28;20636;-74
2021/12/28 08:20:25;;;;;;;9.13;3.20;;;8.10;99.90;;;;;;5051559;28;20660;-73
2021/12/28 08:22:50;;;;;;;0.93;0.93;;;8.20;99.90;;;;;;5034953;28;20196;-73
2021/12/28 08:25:18;;;;;;;4.43;4.13;;;8.20;99.90;;;;;;5052373;28;20196;-74
2021/12/28 08:27:45;;;;;;;4.80;3.03;;;8.20;99.90;;;;;;5051882;28;20588;-74
2021/12/28 08:30:12;;;;;;;0.57;0.57;;;8.10;99.90;;;;;;5042486;28;20637;-73
2021/12/28 08:32:38;;;;;;;40.20;2.97;;;8.00;99.90;;;;;;5041185;28;20185;-73
2021/12/28 08:35:05;;;;;;;2.87;1.83;;;7.90;99.90;;;;;;5032267;28;20201;-74
2021/12/28 08:37:30;;;;;;;1.30;1.30;;;7.90;99.90;;;;;;5030350;28;20734;-74
2021/12/28 08:39:56;;;;;;;0.87;0.87;;;7.80;99.90;;;;;;5032586;28;20173;-73
2021/12/28 08:42:22;;;;;;;3.03;0.90;;;7.80;99.90;;;;;;5042379;28;20184;-76
2021/12/28 08:44:48;;;;;;;0.10;0.10;;;7.90;99.90;;;;;;5032104;28;20166;-73
2021/12/28 08:47:14;;;;;;;0.73;0.67;;;8.10;99.90;;;;;;5031492;28;20580;-73
2021/12/28 08:49:39;;;;;;;0.73;0.73;;;8.20;99.90;;;;;;5031968;28;20263;-73
2021/12/28 08:52:05;;;;;;;0.43;0.43;;;8.30;99.90;;;;;;5019191;28;20196;-73
2021/12/28 08:54:31;;;;;;;1.40;1.27;;;8.50;99.90;;;;;;5031887;28;20188;-73
2021/12/28 08:56:57;;;;;;;0.97;0.67;;;8.60;99.90;;;;;;5030819;28;20197;-74
2021/12/28 08:59:22;;;;;;;0.20;0.20;;;8.60;99.90;;;;;;5031344;28;20177;-73
2021/12/28 09:01:49;;;;;;;0.20;0.20;;;8.70;99.90;;;;;;5031661;28;20645;-74
2021/12/28 09:04:18;;;;;;;0.20;0.20;;;8.80;99.90;;;;;;5031724;28;20169;-74
2021/12/28 09:06:47;;;;;;;0.00;0.00;;;8.80;99.90;;;;;;5031286;28;20204;-74
2021/12/28 09:09:13;;;;;;;0.50;0.50;;;8.80;99.90;;;;;;5031579;28;20216;-74
2021/12/28 09:11:38;;;;;;;0.53;0.53;;;8.90;99.90;;;;;;5031555;28;20198;-74
2021/12/28 09:14:04;;;;;;;0.00;0.00;;;8.90;99.90;;;;;;5045624;28;20183;-74
2021/12/28 09:16:30;;;;;;;0.00;0.00;;;9.00;99.90;;;;;;5051179;28;20208;-74
2021/12/28 09:18:56;;;;;;;0.20;0.20;;;9.10;99.90;;;;;;5051358;28;20175;-74
2021/12/28 09:21:21;;;;;;;0.07;0.07;;;9.20;99.90;;;;;;5051444;28;20342;-74
2021/12/28 09:23:47;;;;;;;0.00;0.00;;;9.20;99.90;;;;;;5051504;28;20640;-74
2021/12/28 09:26:13;;;;;;;0.50;0.20;;;9.30;99.90;;;;;;5051015;28;20242;-73
2021/12/28 09:28:38;;;;;;;0.90;0.83;;;9.30;99.90;;;;;;5051029;28;20196;-74
2021/12/28 09:31:04;;;;;;;0.10;0.10;;;9.30;99.90;;;;;;5051205;28;20182;-74
2021/12/28 09:33:29;;;;;;;0.23;0.23;;;9.40;99.90;;;;;;5051357;28;20709;-74
2021/12/28 09:35:55;;;;;;;0.03;0.03;;;9.40;99.90;;;;;;5051066;28;20192;-73
2021/12/28 09:38:22;;;;;;;0.00;0.00;;;9.40;99.90;;;;;;5046308;28;20197;-73
2021/12/28 09:40:50;;;;;;;0.00;0.00;;;9.30;99.90;;;;;;5041929;28;20201;-73
2021/12/28 09:43:16;;;;;;;1.07;0.40;;;9.40;99.90;;;;;;5038013;28;20165;-73
2021/12/28 09:45:41;;;;;;;0.40;0.40;;;9.40;99.90;;;;;;5012678;28;20267;-73
2021/12/28 09:48:09;;;;;;;0.10;0.10;;;9.40;99.90;;;;;;5031004;28;20225;-73
2021/12/28 09:50:36;;;;;;;0.00;0.00;;;9.50;99.90;;;;;;5031225;28;20166;-73
2021/12/28 09:53:03;;;;;;;0.00;0.00;;;9.50;99.90;;;;;;5037233;28;20170;-73
2021/12/28 09:55:29;;;;;;;0.63;0.63;;;9.50;99.90;;;;;;5031115;28;20268;-73
2021/12/28 09:57:56;;;;;;;0.00;0.00;;;9.60;99.90;;;;;;5030907;28;20575;-73
2021/12/28 10:00:22;;;;;;;0.00;0.00;;;9.50;99.90;;;;;;5030857;28;20177;-73
2021/12/28 10:02:49;;;;;;;0.03;0.03;;;9.60;99.90;;;;;;5031065;28;20510;-74
2021/12/28 10:05:18;;;;;;;0.00;0.00;;;9.60;99.90;;;;;;5031015;28;20185;-73
2021/12/28 10:07:57;;;;;;;0.00;0.00;;;9.60;99.90;;;;;;5030310;28;20768;-74
2021/12/28 10:10:24;;;;;;;0.27;0.27;;;9.60;99.90;;;;;;5031219;28;20181;-74
2021/12/28 10:12:53;;;;;;;0.00;0.00;;;9.60;99.90;;;;;;5033070;28;20177;-74
2021/12/28 10:15:24;;;;;;;0.00;0.00;;;9.60;99.90;;;;;;5033143;28;20181;-74
2021/12/28 10:17:54;;;;;;;0.00;0.00;;;9.60;99.90;;;;;;5050528;28;20181;-73
2021/12/28 10:20:27;;;;;;;0.07;0.07;;;9.60;99.90;;;;;;5032615;28;20176;-74
2021/12/28 10:22:59;;;;;;;0.00;0.00;;;9.60;99.90;;;;;;5050641;28;20176;-74
2021/12/28 10:25:28;;;;;;;0.00;0.00;;;9.70;99.90;;;;;;5050636;28;20177;-74
2021/12/28 10:28:00;;;;;;;0.03;0.03;;;9.70;99.90;;;;;;5050190;28;20193;-74
2021/12/28 10:30:32;;;;;;;0.10;0.10;;;9.80;99.90;;;;;;5043597;28;20335;-74
2021/12/28 10:33:05;;;;;;;0.10;0.10;;;9.90;99.90;;;;;;5022836;28;20182;-72
2021/12/28 10:35:38;;;;;;;0.00;0.00;;;10.00;99.90;;;;;;5058229;22;20216;-75
2021/12/28 10:38:07;;;;;;;0.00;0.00;;;10.00;99.90;;;;;;5040720;28;20171;-75
2021/12/28 10:40:46;;;;;;;0.03;0.03;;;10.00;99.90;;;;;;5052839;28;20213;-75
2021/12/28 10:43:15;;;;;;;0.00;0.00;;;10.10;99.90;;;;;;5059793;28;20728;-75
2021/12/28 10:45:49;;;;;;;0.07;0.07;;;10.20;99.90;;;;;;5055155;28;20197;-74
2021/12/28 10:48:19;;;;;;;0.00;0.00;;;10.20;99.90;;;;;;5066990;28;20207;-75
2021/12/28 10:51:00;;;;;;;0.00;0.00;;;10.30;99.90;;;;;;5072238;28;20366;-75
2021/12/28 10:53:36;;;;;;;0.00;0.00;;;10.30;99.90;;;;;;5073862;28;20180;-75
2021/12/28 10:56:07;;;;;;;0.20;0.20;;;10.40;99.90;;;;;;5073356;28;20208;-75
2021/12/28 10:58:46;;;;;;;0.00;0.00;;;10.50;99.90;;;;;;5076845;28;20563;-75
2021/12/28 11:01:22;;;;;;;0.17;0.17;;;10.70;99.90;;;;;;5076785;28;20220;-75
2021/12/28 11:03:50;;;;;;;0.03;0.03;;;10.90;99.90;;;;;;5076534;28;20263;-75
2021/12/28 11:06:23;;;;;;;1.60;0.93;;;11.00;99.90;;;;;;5075893;28;20296;-73
2021/12/28 11:08:51;;;;;;;0.00;0.00;;;11.00;99.90;;;;;;5076415;28;20211;-76
2021/12/28 11:11:21;;;;;;;0.33;0.10;;;11.00;99.90;;;;;;5076247;28;20180;-76
2021/12/28 11:13:48;;;;;;;0.20;0.10;;;11.00;99.90;;;;;;5076115;28;20176;-76
2021/12/28 11:16:18;;;;;;;0.00;0.00;;;11.00;99.90;;;;;;5075718;28;20217;-76
2021/12/28 11:18:46;;;;;;;0.00;0.00;;;11.00;99.90;;;;;;5076165;28;20194;-76
2021/12/28 11:21:28;;;;;;;0.00;0.00;;;11.00;99.90;;;;;;5094742;28;20263;-76
2021/12/28 11:23:56;;;;;;;0.00;0.00;;;11.10;99.90;;;;;;5076439;28;20550;-76
2021/12/28 11:26:30;;;;;;;0.87;0.73;;;11.10;99.90;;;;;;5094060;28;20242;-75
2021/12/28 11:28:56;;;;;;;0.00;0.00;;;11.10;99.90;;;;;;5076176;28;20206;-75
2021/12/28 11:31:25;;;;;;;0.00;0.00;;;11.00;99.90;;;;;;5094838;28;20666;-76
2021/12/28 11:33:53;;;;;;;0.00;0.00;;;10.90;99.90;;;;;;5064595;28;20199;-76
2021/12/28 11:36:25;;;;;;;0.00;0.00;;;10.90;99.90;;;;;;5056702;28;20681;-75
2021/12/28 11:38:53;;;;;;;0.03;0.03;;;10.90;99.90;;;;;;5047175;28;20177;-76
2021/12/28 11:41:19;;;;;;;0.00;0.00;;;10.90;99.90;;;;;;5075786;28;20216;-76
2021/12/28 11:43:45;;;;;;;0.30;0.30;;;10.80;99.90;;;;;;5075959;28;20188;-75
2021/12/28 11:46:13;;;;;;;0.00;0.00;;;10.70;99.90;;;;;;5061872;28;20192;-75
2021/12/28 11:48:39;;;;;;;0.00;0.00;;;10.60;99.90;;;;;;5073049;28;20203;-75
2021/12/28 11:51:06;;;;;;;0.00;0.00;;;10.50;99.90;;;;;;5067740;28;20202;-76
2021/12/28 11:53:38;;;;;;;0.00;0.00;;;10.50;99.90;;;;;;5062350;28;20200;-76
2021/12/28 11:56:05;;;;;;;0.10;0.10;;;10.40;99.90;;;;;;5096183;28;20199;-76
2021/12/28 11:58:55;;;;;;;0.00;0.00;;;10.40;99.90;;;;;;5079877;28;20270;-76
2021/12/28 12:01:37;;;;;;;0.00;0.00;;;10.30;99.90;;;;;;5093541;28;20194;-76
2021/12/28 12:04:04;;;;;;;0.00;0.00;;;10.30;99.90;;;;;;5075520;28;20208;-76
2021/12/28 12:06:57;;;;;;;0.10;0.10;;;10.30;99.90;;;;;;5093408;28;20880;-76
2021/12/28 12:09:24;;;;;;;0.00;0.00;;;10.20;99.90;;;;;;5074259;28;20187;-76
2021/12/28 12:12:11;;;;;;;0.13;0.13;;;10.30;99.90;;;;;;5075360;28;20600;-76
2021/12/28 12:14:57;;;;;;;0.10;0.10;;;10.30;99.90;;;;;;5074825;28;20188;-76
2021/12/28 12:17:31;;;;;;;0.00;0.00;;;10.20;99.90;;;;;;5074626;28;20666;-76
2021/12/28 12:20:00;;;;;;;0.00;0.00;;;10.20;99.90;;;;;;5092894;28;20202;-76
2021/12/28 12:22:40;;;;;;;0.00;0.00;;;10.20;99.90;;;;;;5076065;28;20186;-76
2021/12/28 12:25:09;;;;;;;0.00;0.00;;;10.30;99.90;;;;;;5096497;28;20282;-76
2021/12/28 12:27:50;;;;;;;0.00;0.00;;;10.30;99.90;;;;;;5074111;28;20192;-76
2021/12/28 12:30:24;;;;;;;0.00;0.00;;;10.30;99.90;;;;;;5075213;28;20171;-75
2021/12/28 12:33:02;;;;;;;0.00;0.00;;;10.30;99.90;;;;;;5097447;28;20186;-75
2021/12/28 12:35:35;;;;;;;3.20;0.90;;;10.10;99.90;;;;;;5063450;28;20265;-76
2021/12/28 12:38:14;;;;;;;0.00;0.00;;;10.10;99.90;;;;;;5066544;28;20187;-76
2021/12/28 12:40:59;;;;;;;14.80;1.33;;;10.00;99.90;;;;;;5094037;28;20264;-75
2021/12/28 12:43:49;;;;;;;0.00;0.00;;;10.00;99.90;;;;;;5076391;28;20183;-76
2021/12/28 12:46:38;;;;;;;1.73;1.63;;;9.90;99.90;;;;;;5060682;28;20805;-76
2021/12/28 12:49:09;;;;;;;0.90;0.90;;;9.80;99.90;;;;;;5061409;28;20195;-76
2021/12/28 12:51:38;;;;;;;18.17;0.63;;;9.80;99.90;;;;;;5066775;28;20181;-76
2021/12/28 12:54:08;;;;;;;0.00;0.00;;;9.80;99.90;;;;;;5064800;28;20276;-75
2021/12/28 12:56:50;;;;;;;1.60;0.70;;;9.70;99.90;;;;;;5074755;28;20195;-76
2021/12/28 12:59:19;;;;;;;0.10;0.10;;;9.80;99.90;;;;;;5073785;28;20177;-76
2021/12/28 13:01:47;;;;;;;1.60;0.67;;;9.80;99.90;;;;;;5076819;28;20180;-75